createdAt,value
2023-04-18T00:01:22.181Z,100618.28
2023-04-18T00:03:52.183Z,100576.69
2023-04-18T00:06:22.800Z,100618.25
2023-04-18T00:08:51.774Z,100587.00
2023-04-18T00:11:20.266Z,100606.09
2023-04-18T00:13:48.884Z,100554.06
2023-04-18T00:16:17.605Z,100630.31
2023-04-18T00:18:48.899Z,100641.59
2023-04-18T00:21:18.082Z,100545.34
2023-04-18T00:23:47.040Z,100611.22
2023-04-18T00:26:15.660Z,100629.44
2023-04-18T00:28:46.048Z,100628.53
2023-04-18T00:31:14.788Z,100649.38
2023-04-18T00:33:43.741Z,100619.91
2023-04-18T00:36:12.259Z,100568.69
2023-04-18T00:38:43.038Z,100651.13
2023-04-18T00:41:11.757Z,100583.47
2023-04-18T00:43:40.431Z,100656.25
2023-04-18T00:46:09.726Z,100658.00
2023-04-18T00:48:40.001Z,100656.28
2023-04-18T00:51:09.529Z,100582.56
2023-04-18T00:53:38.473Z,100626.78
2023-04-18T00:56:08.247Z,100628.53
2023-04-18T00:58:41.419Z,100666.66
2023-04-18T01:01:10.618Z,100641.56
2023-04-18T01:03:40.138Z,100670.16
2023-04-18T01:06:09.057Z,100646.78
2023-04-18T01:08:38.069Z,100682.38
2023-04-18T01:11:07.029Z,100664.19
2023-04-18T01:13:35.478Z,100678.97
2023-04-18T01:16:05.418Z,100653.81
2023-04-18T01:18:35.791Z,100663.38
2023-04-18T01:21:06.897Z,100663.38
2023-04-18T01:23:35.598Z,100693.72
2023-04-18T01:26:04.281Z,100596.63
2023-04-18T01:28:38.271Z,100697.22
2023-04-18T01:31:09.153Z,100680.78
2023-04-18T01:33:38.613Z,100560.31
2023-04-18T01:36:07.438Z,100673.91
2023-04-18T01:38:36.164Z,100589.81
2023-04-18T01:41:04.781Z,100692.97
2023-04-18T01:43:33.570Z,100692.97
2023-04-18T01:46:04.820Z,100655.75
2023-04-18T01:48:34.101Z,100665.28
2023-04-18T01:51:02.949Z,100672.22
2023-04-18T01:53:33.238Z,100681.75
2023-04-18T01:56:02.070Z,100680.81
2023-04-18T01:58:30.742Z,100668.53
2023-04-18T02:00:59.373Z,100667.50
2023-04-18T02:03:28.333Z,100668.53
2023-04-18T02:05:57.165Z,100643.16
2023-04-18T02:08:25.905Z,100565.03
2023-04-18T02:10:54.661Z,100677.72
2023-04-18T02:13:23.242Z,100697.22
2023-04-18T02:15:55.528Z,100600.81
2023-04-18T02:18:26.233Z,100662.94
2023-04-18T02:20:55.094Z,100612.06
2023-04-18T02:23:23.612Z,100696.88
2023-04-18T02:25:57.437Z,100707.44
2023-04-18T02:28:26.257Z,100692.44
2023-04-18T02:30:56.552Z,100661.38
2023-04-18T02:33:25.163Z,100712.84
2023-04-18T02:35:54.336Z,100626.97
2023-04-18T02:38:23.011Z,100672.06
2023-04-18T02:40:53.713Z,100707.16
2023-04-18T02:43:22.198Z,100712.72
2023-04-18T02:45:50.978Z,100674.16
2023-04-18T02:48:19.620Z,100627.50
2023-04-18T02:50:48.342Z,100492.56
2023-04-18T02:53:17.884Z,100692.16
2023-04-18T02:55:56.835Z,100656.03
2023-04-18T02:58:35.633Z,100716.63
2023-04-18T03:01:24.981Z,100681.19
2023-04-18T03:04:03.925Z,100678.88
2023-04-18T03:06:43.261Z,100720.59
2023-04-18T03:09:12.217Z,100703.41
2023-04-18T03:11:46.171Z,100710.28
2023-04-18T03:14:15.849Z,100694.69
2023-04-18T03:16:53.069Z,100707.78
2023-04-18T03:19:27.575Z,100735.56
2023-04-18T03:21:59.882Z,100705.16
2023-04-18T03:24:29.083Z,100704.94
2023-04-18T03:27:01.528Z,100705.69
2023-04-18T03:29:30.223Z,100734.38
2023-04-18T03:31:59.225Z,100725.84
2023-04-18T03:34:28.143Z,100721.34
2023-04-18T03:36:57.229Z,100656.38
2023-04-18T03:39:27.045Z,100726.41
2023-04-18T03:41:55.903Z,100731.63
2023-04-18T03:44:24.651Z,100662.56
2023-04-18T03:46:53.281Z,100728.47
2023-04-18T03:49:22.132Z,100723.47
2023-04-18T03:51:50.969Z,100722.31
2023-04-18T03:54:20.219Z,100715.19
2023-04-18T03:56:50.755Z,100722.88
2023-04-18T03:59:19.529Z,100718.59
2023-04-18T04:01:51.258Z,100669.09
2023-04-18T04:04:20.719Z,100719.59
2023-04-18T04:06:49.481Z,100745.94
2023-04-18T04:09:18.315Z,100677.41
2023-04-18T04:11:47.025Z,100675.28
2023-04-18T04:14:16.904Z,100746.06
2023-04-18T04:16:47.691Z,100749.38
2023-04-18T04:19:18.597Z,100740.00
2023-04-18T04:21:57.825Z,100745.97
2023-04-18T04:24:26.478Z,100727.63
2023-04-18T04:26:57.025Z,100760.13
2023-04-18T04:29:29.693Z,100755.34
2023-04-18T04:32:02.484Z,100684.16
2023-04-18T04:34:38.558Z,100755.78
2023-04-18T04:37:08.905Z,100754.22
2023-04-18T04:39:46.902Z,100743.03
2023-04-18T04:42:54.736Z,100752.72
2023-04-18T04:45:30.599Z,100743.63
2023-04-18T04:47:59.900Z,100745.78
2023-04-18T04:50:28.774Z,100774.75
2023-04-18T04:52:57.597Z,100779.69
2023-04-18T04:55:26.364Z,100751.91
2023-04-18T04:57:56.622Z,100758.97
2023-04-18T05:00:34.583Z,100777.94
2023-04-18T05:03:03.530Z,100781.09
2023-04-18T05:05:32.468Z,100799.59
2023-04-18T05:08:01.806Z,100773.66
2023-04-18T05:10:31.330Z,100766.78
2023-04-18T05:12:59.942Z,100749.75
2023-04-18T05:15:28.659Z,100780.91
2023-04-18T05:17:57.333Z,100773.84
2023-04-18T05:20:26.088Z,100776.59
2023-04-18T05:22:54.800Z,100715.84
2023-04-18T05:25:23.440Z,100784.53
2023-04-18T05:27:52.588Z,100714.41
2023-04-18T05:30:21.394Z,100758.38
2023-04-18T05:32:50.307Z,100761.22
2023-04-18T05:35:19.174Z,100796.06
2023-04-18T05:37:48.241Z,100784.63
2023-04-18T05:40:17.482Z,100807.91
2023-04-18T05:42:46.103Z,100786.34
2023-04-18T05:45:15.285Z,100714.22
2023-04-18T05:47:43.930Z,100783.53
2023-04-18T05:50:13.166Z,100783.72
2023-04-18T05:52:41.866Z,100817.56
2023-04-18T05:55:10.904Z,100726.06
2023-04-18T05:57:39.812Z,100790.81
2023-04-18T06:00:12.033Z,100799.38
2023-04-18T06:02:43.687Z,100813.25
2023-04-18T06:05:14.063Z,100798.88
2023-04-18T06:07:43.431Z,100820.53
2023-04-18T06:10:14.034Z,100739.31
2023-04-18T06:12:43.277Z,100802.63
2023-04-18T06:15:12.611Z,100812.13
2023-04-18T06:17:41.691Z,100742.91
2023-04-18T06:20:11.322Z,100808.16
2023-04-18T06:22:40.062Z,100838.03
2023-04-18T06:25:11.973Z,100799.03
2023-04-18T06:27:41.257Z,100833.88
2023-04-18T06:30:11.605Z,100815.53
2023-04-18T06:32:40.463Z,100852.69
2023-04-18T06:35:09.453Z,100850.03
2023-04-18T06:37:38.307Z,100853.06
2023-04-18T06:40:07.457Z,100735.56
2023-04-18T06:42:36.319Z,100834.97
2023-04-18T06:45:06.929Z,100834.59
2023-04-18T06:47:35.664Z,100823.50
2023-04-18T06:50:04.799Z,100866.34
2023-04-18T06:52:33.454Z,100837.53
2023-04-18T06:55:02.218Z,100846.88
2023-04-18T06:57:30.882Z,100855.31
2023-04-18T06:59:59.594Z,100773.44
2023-04-18T07:02:28.137Z,100874.78
2023-04-18T07:04:57.071Z,100851.59
2023-04-18T07:07:27.080Z,100851.66
2023-04-18T07:09:55.955Z,100849.47
2023-04-18T07:12:24.636Z,100871.94
2023-04-18T07:14:53.764Z,100801.13
2023-04-18T07:17:22.300Z,100875.44
2023-04-18T07:19:51.021Z,100865.69
2023-04-18T07:22:19.743Z,100843.00
2023-04-18T07:24:48.363Z,100872.53
2023-04-18T07:27:17.077Z,100867.28
2023-04-18T07:29:47.951Z,100834.97
2023-04-18T07:32:16.641Z,100881.09
2023-04-18T07:34:47.789Z,100900.28
2023-04-18T07:37:18.272Z,100869.03
2023-04-18T07:39:46.961Z,100894.56
2023-04-18T07:42:15.633Z,100876.50
2023-04-18T07:44:48.223Z,100860.34
2023-04-18T07:47:17.114Z,100892.72
2023-04-18T07:49:45.742Z,100883.09
2023-04-18T07:52:14.269Z,100877.31
2023-04-18T07:54:43.076Z,100899.94
2023-04-18T07:57:11.853Z,100898.38
2023-04-18T07:59:40.664Z,100879.66
2023-04-18T08:02:09.297Z,100895.09
2023-04-18T08:04:38.059Z,100928.38
2023-04-18T08:07:07.002Z,100920.59
2023-04-18T08:09:35.734Z,100896.59
2023-04-18T08:12:04.428Z,100923.38
2023-04-18T08:14:33.419Z,100902.06
2023-04-18T08:17:02.201Z,100929.72
2023-04-18T08:19:30.789Z,100920.75
2023-04-18T08:22:11.672Z,100856.91
2023-04-18T08:24:41.675Z,100945.41
2023-04-18T08:27:15.179Z,100950.88
2023-04-18T08:29:43.928Z,100945.78
2023-04-18T08:32:12.495Z,100913.69
2023-04-18T08:34:41.311Z,100914.19
2023-04-18T08:37:10.808Z,100926.47
2023-04-18T08:39:39.564Z,100938.97
2023-04-18T08:42:11.150Z,100950.38
2023-04-18T08:44:40.002Z,100846.34
2023-04-18T08:47:10.535Z,100934.72
2023-04-18T08:49:40.799Z,100942.44
2023-04-18T08:52:17.906Z,100850.53
2023-04-18T08:54:47.854Z,100944.88
2023-04-18T08:57:17.604Z,100967.09
2023-04-18T08:59:48.944Z,100995.97
2023-04-18T09:02:20.108Z,100968.50
2023-04-18T09:05:00.906Z,100985.44
2023-04-18T09:07:30.680Z,100803.44
2023-04-18T09:09:59.410Z,100974.44
2023-04-18T09:12:33.169Z,100996.44
2023-04-18T09:15:16.321Z,100986.88
2023-04-18T09:17:50.188Z,100984.59
2023-04-18T09:20:42.880Z,101018.66
2023-04-18T09:23:15.303Z,101001.50
2023-04-18T09:25:48.797Z,101013.91
2023-04-18T09:28:29.858Z,101027.66
2023-04-18T09:31:15.299Z,100985.31
2023-04-18T09:33:57.521Z,101018.50
2023-04-18T09:36:28.263Z,101008.56
2023-04-18T09:38:57.524Z,101016.84
2023-04-18T09:41:26.131Z,101034.38
2023-04-18T09:44:14.864Z,101034.41
2023-04-18T09:46:47.218Z,101024.97
2023-04-18T09:49:17.409Z,101042.44
2023-04-18T09:51:47.008Z,101078.88
2023-04-18T09:54:20.605Z,101041.56
2023-04-18T09:56:51.549Z,101047.72
2023-04-18T09:59:35.156Z,101076.50
2023-04-18T10:02:08.683Z,101068.72
2023-04-18T10:04:38.171Z,101082.63
2023-04-18T10:07:09.767Z,101073.00
2023-04-18T10:09:40.385Z,101031.34
2023-04-18T10:12:13.397Z,101091.34
2023-04-18T10:14:43.929Z,101101.75
2023-04-18T10:17:15.129Z,101057.44
2023-04-18T10:19:46.711Z,101105.22
2023-04-18T10:22:15.429Z,101119.13
2023-04-18T10:24:50.724Z,101126.94
2023-04-18T10:27:40.471Z,101121.75
2023-04-18T10:30:10.147Z,101148.69
2023-04-18T10:32:40.456Z,101123.50
2023-04-18T10:35:09.629Z,101138.25
2023-04-18T10:38:00.632Z,101152.97
2023-04-18T10:40:36.778Z,101167.69
2023-04-18T10:43:07.468Z,101151.13
2023-04-18T10:45:37.253Z,101153.59
2023-04-18T10:48:26.040Z,101170.78
2023-04-18T10:51:17.544Z,101195.13
2023-04-18T10:53:59.876Z,101192.44
2023-04-18T10:56:29.771Z,101189.78
2023-04-18T10:59:04.069Z,101204.59
2023-04-18T11:01:35.441Z,101210.69
2023-04-18T11:04:14.380Z,101194.06
2023-04-18T11:06:56.811Z,101205.25
2023-04-18T11:09:26.538Z,101152.78
2023-04-18T11:12:05.849Z,101214.56
2023-04-18T11:14:45.068Z,101212.59
2023-04-18T11:17:19.763Z,101251.72
2023-04-18T11:20:02.397Z,101262.97
2023-04-18T11:22:31.833Z,101251.59
2023-04-18T11:25:09.369Z,101269.88
2023-04-18T11:27:38.370Z,101162.47
2023-04-18T11:30:07.990Z,101166.63
2023-04-18T11:32:37.201Z,101239.59
2023-04-18T11:35:06.410Z,101186.06
2023-04-18T11:37:38.369Z,101250.63
2023-04-18T11:40:09.668Z,101175.66
2023-04-18T11:42:40.247Z,101181.75
2023-04-18T11:45:14.349Z,101249.84
2023-04-18T11:47:44.285Z,101279.59
2023-04-18T11:50:14.577Z,101248.31
2023-04-18T11:52:43.482Z,101287.53
2023-04-18T11:55:27.864Z,101291.84
2023-04-18T11:58:02.252Z,101272.53
2023-04-18T12:00:39.272Z,101207.84
2023-04-18T12:03:19.512Z,101159.00
2023-04-18T12:05:48.721Z,101289.81
2023-04-18T12:08:21.827Z,101283.00
2023-04-18T12:10:52.433Z,101318.81
2023-04-18T12:13:32.827Z,101231.50
2023-04-18T12:16:03.568Z,101094.50
2023-04-18T12:18:33.116Z,101329.78
2023-04-18T12:21:06.570Z,101348.69
2023-04-18T12:23:37.827Z,101254.22
2023-04-18T12:26:08.753Z,101355.78
2023-04-18T12:28:37.327Z,101357.13
2023-04-18T12:31:09.752Z,101347.41
2023-04-18T12:33:38.562Z,101334.94
2023-04-18T12:36:09.305Z,101327.16
2023-04-18T12:38:40.647Z,101337.59
2023-04-18T12:41:09.705Z,101341.78
2023-04-18T12:43:39.209Z,101367.94
2023-04-18T12:46:07.989Z,101249.38
2023-04-18T12:48:36.724Z,101344.66
2023-04-18T12:51:05.598Z,101379.53
2023-04-18T12:53:34.468Z,101280.97
2023-04-18T12:56:06.223Z,101340.38
2023-04-18T12:58:37.765Z,101281.09
2023-04-18T13:01:07.440Z,101381.25
2023-04-18T13:03:37.920Z,101368.91
2023-04-18T13:06:07.434Z,101367.03
2023-04-18T13:08:38.226Z,101389.78
2023-04-18T13:11:07.546Z,101390.69
2023-04-18T13:13:37.156Z,101397.72
2023-04-18T13:16:06.613Z,101384.53
2023-04-18T13:18:35.772Z,101339.84
2023-04-18T13:21:04.636Z,101307.41
2023-04-18T13:23:33.474Z,101417.44
2023-04-18T13:26:02.735Z,101389.56
2023-04-18T13:28:31.432Z,101406.03
2023-04-18T13:31:00.516Z,101416.41
2023-04-18T13:33:29.101Z,101394.47
2023-04-18T13:35:57.596Z,101431.00
2023-04-18T13:38:29.126Z,101400.34
2023-04-18T13:41:08.896Z,101409.88
2023-04-18T13:43:40.008Z,101419.41
2023-04-18T13:46:08.739Z,101411.50
2023-04-18T13:48:37.629Z,101408.59
2023-04-18T13:51:06.598Z,101443.34
2023-04-18T13:53:35.338Z,101471.09
2023-04-18T13:56:04.192Z,101439.59
2023-04-18T13:58:33.297Z,101445.56
2023-04-18T14:01:02.554Z,101448.13
2023-04-18T14:03:35.389Z,101448.81
2023-04-18T14:06:08.638Z,101426.78
2023-04-18T14:08:40.778Z,101475.38
2023-04-18T14:11:09.698Z,101466.50
2023-04-18T14:13:38.594Z,101261.59
2023-04-18T14:16:08.100Z,101379.34
2023-04-18T14:18:40.277Z,101398.56
2023-04-18T14:21:08.890Z,101505.06
2023-04-18T14:23:37.684Z,101500.53
2023-04-18T14:26:06.709Z,101479.47
2023-04-18T14:28:35.455Z,101493.28
2023-04-18T14:31:07.190Z,101500.84
2023-04-18T14:33:36.446Z,101490.19
2023-04-18T14:36:05.553Z,101546.75
2023-04-18T14:38:34.648Z,101517.84
2023-04-18T14:41:06.249Z,101553.59
2023-04-18T14:43:35.035Z,101544.78
2023-04-18T14:46:09.106Z,101548.22
2023-04-18T14:48:50.891Z,101532.34
2023-04-18T14:51:27.285Z,101491.78
2023-04-18T14:54:04.599Z,101531.00
2023-04-18T14:56:48.646Z,101496.56
2023-04-18T14:59:32.255Z,101583.94
2023-04-18T15:02:12.071Z,101566.19
2023-04-18T15:04:50.954Z,101416.63
2023-04-18T15:07:32.954Z,101592.94
2023-04-18T15:10:09.906Z,101598.00
2023-04-18T15:12:47.247Z,101577.59
2023-04-18T15:15:26.733Z,101589.72
2023-04-18T15:18:07.132Z,101591.13
2023-04-18T15:20:51.947Z,101581.44
2023-04-18T15:23:32.694Z,101609.28
2023-04-18T15:26:11.737Z,101600.25
2023-04-18T15:28:48.966Z,101610.47
2023-04-18T15:31:18.571Z,101404.38
2023-04-18T15:33:50.188Z,101545.38
2023-04-18T15:36:18.962Z,101658.22
2023-04-18T15:38:48.606Z,101652.75
2023-04-18T15:41:17.257Z,101654.47
2023-04-18T15:43:46.511Z,101629.88
2023-04-18T15:46:15.450Z,101614.88
2023-04-18T15:48:44.711Z,101615.66
2023-04-18T15:51:13.813Z,101637.28
2023-04-18T15:53:42.520Z,101640.66
2023-04-18T15:56:11.359Z,101680.81
2023-04-18T15:58:40.352Z,101669.34
2023-04-18T16:01:10.298Z,101666.59
2023-04-18T16:03:39.352Z,101666.41
2023-04-18T16:06:10.854Z,101704.31
2023-04-18T16:08:39.760Z,101699.25
2023-04-18T16:11:09.752Z,101681.47
2023-04-18T16:13:38.836Z,101643.22
2023-04-18T16:16:08.592Z,101698.88
2023-04-18T16:18:37.610Z,101703.91
2023-04-18T16:21:06.473Z,101707.28
2023-04-18T16:23:35.734Z,101696.88
2023-04-18T16:26:04.562Z,101683.31
2023-04-18T16:28:38.317Z,101675.81
2023-04-18T16:31:09.868Z,101712.94
2023-04-18T16:33:39.293Z,101672.50
2023-04-18T16:36:08.692Z,101709.03
2023-04-18T16:38:37.720Z,101705.25
2023-04-18T16:41:06.883Z,101699.72
2023-04-18T16:43:38.621Z,101695.34
2023-04-18T16:46:08.408Z,101731.88
2023-04-18T16:48:39.447Z,101732.44
2023-04-18T16:51:08.277Z,101738.41
2023-04-18T16:53:37.145Z,101731.09
2023-04-18T16:56:06.369Z,101740.84
2023-04-18T16:58:35.152Z,101740.72
2023-04-18T17:01:03.726Z,101720.31
2023-04-18T17:03:32.664Z,101648.13
2023-04-18T17:06:02.469Z,101730.53
2023-04-18T17:08:34.765Z,101757.63
2023-04-18T17:11:04.062Z,101644.78
2023-04-18T17:13:33.032Z,101735.38
2023-04-18T17:16:01.924Z,101738.56
2023-04-18T17:18:30.732Z,101743.84
2023-04-18T17:20:59.354Z,101747.19
2023-04-18T17:23:28.135Z,101748.84
2023-04-18T17:25:57.040Z,101778.59
2023-04-18T17:28:25.945Z,101787.09
2023-04-18T17:30:54.814Z,101770.28
2023-04-18T17:33:23.516Z,101761.34
2023-04-18T17:35:52.655Z,101781.38
2023-04-18T17:38:21.198Z,101784.13
2023-04-18T17:40:49.990Z,101779.59
2023-04-18T17:43:18.633Z,101791.81
2023-04-18T17:45:47.196Z,101775.97
2023-04-18T17:48:17.224Z,101811.78
2023-04-18T17:50:46.411Z,101812.44
2023-04-18T17:53:15.350Z,101804.69
2023-04-18T17:55:45.997Z,101822.22
2023-04-18T17:58:17.169Z,101798.38
2023-04-18T18:00:46.425Z,101831.34
2023-04-18T18:03:16.629Z,101773.84
2023-04-18T18:05:50.234Z,101803.41
2023-04-18T18:08:18.742Z,101823.13
2023-04-18T18:10:48.589Z,101799.81
2023-04-18T18:13:17.372Z,101843.09
2023-04-18T18:15:46.627Z,101831.22
2023-04-18T18:18:30.601Z,101810.56
2023-04-18T18:20:59.564Z,101819.03
2023-04-18T18:23:28.789Z,101789.78
2023-04-18T18:25:57.467Z,101847.69
2023-04-18T18:28:26.408Z,101819.25
2023-04-18T18:30:55.166Z,101860.31
2023-04-18T18:33:24.012Z,101814.44
2023-04-18T18:35:55.338Z,101824.81
2023-04-18T18:38:27.997Z,101825.47
2023-04-18T18:40:56.895Z,101849.47
2023-04-18T18:43:27.289Z,101847.78
2023-04-18T18:45:56.121Z,101860.84
2023-04-18T18:48:25.528Z,101846.34
2023-04-18T18:50:55.264Z,101866.78
2023-04-18T18:53:24.028Z,101848.94
2023-04-18T18:55:52.746Z,101854.34
2023-04-18T18:58:22.327Z,101819.00
2023-04-18T19:00:51.793Z,101840.94
2023-04-18T19:03:22.030Z,101844.41
2023-04-18T19:05:50.607Z,101879.22
2023-04-18T19:08:19.091Z,101850.88
2023-04-18T19:10:47.828Z,101845.59
2023-04-18T19:13:16.450Z,101870.69
2023-04-18T19:15:45.255Z,101857.78
2023-04-18T19:18:14.174Z,101849.09
2023-04-18T19:20:43.235Z,101869.09
2023-04-18T19:23:12.031Z,101855.81
2023-04-18T19:25:40.675Z,101881.28
2023-04-18T19:28:09.320Z,101862.72
2023-04-18T19:30:38.714Z,101873.81
2023-04-18T19:33:08.203Z,101871.84
2023-04-18T19:35:38.025Z,101849.50
2023-04-18T19:38:06.791Z,101887.41
2023-04-18T19:40:35.572Z,101872.16
2023-04-18T19:43:04.079Z,101887.78
2023-04-18T19:45:32.956Z,101878.47
2023-04-18T19:48:01.622Z,101858.88
2023-04-18T19:50:30.243Z,101890.28
2023-04-18T19:52:58.699Z,101782.97
2023-04-18T19:55:27.816Z,101877.50
2023-04-18T19:57:57.424Z,101892.41
2023-04-18T20:00:26.579Z,101874.72
2023-04-18T20:02:55.417Z,101878.69
2023-04-18T20:05:24.865Z,101879.34
2023-04-18T20:07:53.895Z,101915.09
2023-04-18T20:10:25.635Z,101870.59
2023-04-18T20:12:54.278Z,101923.50
2023-04-18T20:15:23.216Z,101879.47
2023-04-18T20:17:51.947Z,101891.94
2023-04-18T20:20:20.661Z,101897.88
2023-04-18T20:22:50.077Z,101892.19
2023-04-18T20:25:18.812Z,101925.97
2023-04-18T20:27:47.511Z,101925.59
2023-04-18T20:30:16.993Z,101821.53
2023-04-18T20:32:45.696Z,101927.75
2023-04-18T20:35:14.339Z,101882.13
2023-04-18T20:37:43.248Z,101911.78
2023-04-18T20:40:12.412Z,101899.88
2023-04-18T20:42:41.109Z,101906.84
2023-04-18T20:45:14.553Z,101885.91
2023-04-18T20:47:44.130Z,101921.19
2023-04-18T20:50:14.856Z,101861.03
2023-04-18T20:52:43.688Z,101882.19
2023-04-18T20:55:12.796Z,101921.66
2023-04-18T20:57:41.720Z,101799.91
2023-04-18T21:00:11.354Z,101864.50
2023-04-18T21:02:40.525Z,101927.16
2023-04-18T21:05:09.733Z,101823.69
2023-04-18T21:07:38.404Z,101905.00
2023-04-18T21:10:07.691Z,101911.78
2023-04-18T21:12:36.533Z,101900.28
2023-04-18T21:15:06.349Z,101836.72
2023-04-18T21:17:35.096Z,101924.16
2023-04-18T21:20:04.182Z,101842.63
2023-04-18T21:22:32.873Z,101957.97
2023-04-18T21:25:04.413Z,101683.59
2023-04-18T21:27:33.189Z,101955.41
2023-04-18T21:30:04.097Z,101935.25
2023-04-18T21:32:33.585Z,101946.97
2023-04-18T21:35:02.302Z,101946.56
2023-04-18T21:37:31.274Z,101941.09
2023-04-18T21:39:59.856Z,101969.28
2023-04-18T21:42:28.693Z,101965.75
2023-04-18T21:44:57.485Z,101911.59
2023-04-18T21:47:28.825Z,101924.28
2023-04-18T21:49:57.533Z,101950.59
2023-04-18T21:52:26.311Z,101972.63
2023-04-18T21:54:54.973Z,101944.63
2023-04-18T21:57:23.762Z,101955.34
2023-04-18T21:59:52.599Z,101947.09
2023-04-18T22:02:23.988Z,101952.97
2023-04-18T22:04:52.894Z,101953.53
2023-04-18T22:07:22.253Z,101948.22
2023-04-18T22:09:51.952Z,101980.38
2023-04-18T22:12:20.764Z,101983.09
2023-04-18T22:14:49.619Z,101984.38
2023-04-18T22:17:18.336Z,101976.25
2023-04-18T22:19:49.817Z,101966.47
2023-04-18T22:22:18.444Z,101990.47
2023-04-18T22:24:47.917Z,101968.94
2023-04-18T22:27:16.886Z,102003.94
2023-04-18T22:29:45.992Z,101996.97
2023-04-18T22:32:14.837Z,101988.22
2023-04-18T22:34:43.736Z,101975.22
2023-04-18T22:37:12.516Z,101998.78
2023-04-18T22:39:41.155Z,101986.09
2023-04-18T22:42:09.801Z,102008.56
2023-04-18T22:44:38.674Z,101976.59
2023-04-18T22:47:08.634Z,101965.97
2023-04-18T22:49:38.930Z,101984.53
2023-04-18T22:52:08.873Z,102004.53
2023-04-18T22:54:41.300Z,101980.38
2023-04-18T22:57:10.273Z,101976.94
2023-04-18T22:59:38.892Z,101983.03
2023-04-18T23:02:07.767Z,101962.72
2023-04-18T23:04:36.818Z,102007.53
2023-04-18T23:07:05.515Z,101988.78
2023-04-18T23:09:34.488Z,102015.84
2023-04-18T23:12:03.576Z,102001.53
2023-04-18T23:14:32.819Z,102032.63
2023-04-18T23:17:02.117Z,101996.91
2023-04-18T23:19:30.818Z,102025.47
2023-04-18T23:22:00.889Z,102003.25
2023-04-18T23:24:29.905Z,102034.03
2023-04-18T23:27:01.452Z,102031.47
2023-04-18T23:29:30.260Z,102017.97
2023-04-18T23:31:59.161Z,102002.22
2023-04-18T23:34:27.859Z,101996.31
2023-04-18T23:36:56.549Z,102007.00
2023-04-18T23:39:27.564Z,102003.13
2023-04-18T23:41:56.959Z,102038.13
2023-04-18T23:44:25.917Z,101997.75
2023-04-18T23:46:54.502Z,102017.72
2023-04-18T23:49:23.313Z,102031.03
2023-04-18T23:51:52.135Z,102012.28
2023-04-18T23:54:20.854Z,102059.41
2023-04-18T23:56:49.577Z,102045.53
2023-04-18T23:59:18.415Z,101994.28
